• Join FlightAware (Why Join?)
  • Login
  • US Flag 
07:04PM EDT


 

Airport Tracker/Info


-or-


 

Live Flight TrackerFlight Track Log ✈ N9029X ✈ 27-Nov-2013 ✈ SC2 - KSLC

Flight Track Log - Related Links

Times and Time Zones

All times are in EST time to prevent confusion due to time zone crossing. See the N9029X flight status page for this flight to view local times or setup timezone preferences in your user account.

Time Position Orientation Groundspeed Altitude Reporting Facility
EST Latitude Longitude Course Direction KTS MPH feet Rate Location/Type
12:14PM 33.9333 -118.0000 59° Northeast 106 122 4,200  Level Southern California TRACON
12:15PM 33.9500 -117.9667 59° Northeast 105 121 4,900 720 Climbing Southern California TRACON
12:16PM 33.9500 -117.9333 90° East 105 121 5,600 660 Climbing Southern California TRACON
12:17PM 33.9500 -117.9000 90° East 102 117 6,200 660 Climbing Southern California TRACON
12:18PM 33.9500 -117.8833 90° East 101 116 6,900 600 Climbing Southern California TRACON
12:19PM 33.9667 -117.8333 68° East 103 119 7,400 240 Climbing Southern California TRACON
12:20PM 33.9833 -117.8000 59° Northeast 133 153 7,400  Level Southern California TRACON
12:21PM 34.0000 -117.7667 59° Northeast 129 148 7,400  Level Southern California TRACON
12:22PM 34.0167 -117.7333 59° Northeast 131 151 7,500  Climbing Southern California TRACON
12:23PM 34.0333 -117.7000 59° Northeast 131 151 7,500  Level Southern California TRACON
12:24PM 34.0667 -117.6667 40° Northeast 132 152 7,500  Level Southern California TRACON
12:25PM 34.0833 -117.6333 59° Northeast 145 167 7,500 180 Level Southern California TRACON
12:26PM 34.1000 -117.6000 59° Northeast 130 150 7,900 420 Climbing Southern California TRACON
12:27PM 34.1167 -117.5667 59° Northeast 108 124 8,400 480 Climbing Southern California TRACON
12:27PM 34.1358 -117.5522 32° Northeast 108 124 8,700 480 Climbing Los Angeles Center
12:28PM 34.1581 -117.5244 46° Northeast 114 131 9,200 360 Climbing Los Angeles Center
12:29PM 34.1825 -117.4964 44° Northeast 121 139 9,500 180 Climbing Los Angeles Center
12:30PM 34.2061 -117.4633 49° Northeast 131 151 9,600 60 Climbing Los Angeles Center
12:31PM 34.2314 -117.4289 48° Northeast 137 158 9,700 60 Climbing Los Angeles Center
12:32PM 34.2581 -117.3986 43° Northeast 134 154 9,800  Climbing Los Angeles Center
12:33PM 34.2894 -117.3569 48° Northeast 141 162 9,800 -120 Level Los Angeles Center
12:34PM 34.3147 -117.3200 50° Northeast 143 165 9,600 -60 Descending Los Angeles Center
12:35PM 34.3386 -117.2842 51° Northeast 139 160 9,700  Climbing Los Angeles Center
12:36PM 34.3636 -117.2472 51° Northeast 142 163 9,600 -60 Descending Los Angeles Center
12:38PM 34.3894 -117.2083 51° Northeast 143 165 9,600  Level Los Angeles Center
12:39PM 34.4225 -117.1656 47° Northeast 146 168 9,600 -60 Level Los Angeles Center
12:40PM 34.4489 -117.1286 49° Northeast 145 167 9,500 -60 Descending Los Angeles Center
12:41PM 34.4786 -117.0858 50° Northeast 142 163 9,500  Level Los Angeles Center
12:42PM 34.5033 -117.0500 50° Northeast 140 161 9,600 120 Climbing Los Angeles Center
12:43PM 34.5278 -117.0144 50° Northeast 139 160 9,800 180 Climbing Los Angeles Center
12:44PM 34.5531 -116.9836 45° Northeast 135 155 10,000 180 Climbing Los Angeles Center
12:45PM 34.5794 -116.9533 43° Northeast 133 153 10,200 240 Climbing Los Angeles Center
12:46PM 34.6106 -116.9133 47° Northeast 134 154 10,500 240 Climbing Los Angeles Center
12:47PM 34.6361 -116.8822 45° Northeast 133 153 10,800 240 Climbing Los Angeles Center
12:48PM 34.6600 -116.8517 46° Northeast 130 150 11,100 240 Climbing Los Angeles Center
12:49PM 34.6836 -116.8200 48° Northeast 128 147 11,400 240 Climbing Los Angeles Center
12:50PM 34.7069 -116.7875 49° Northeast 128 147 11,600 60 Climbing Los Angeles Center
12:51PM 34.7336 -116.7561 44° Northeast 129 148 11,600  Level Los Angeles Center
12:52PM 34.7708 -116.7200 39° Northeast 138 159 11,600  Level Los Angeles Center
12:53PM 34.7992 -116.6886 42° Northeast 139 160 11,600  Level Los Angeles Center
12:54PM 34.8278 -116.6597 40° Northeast 137 158 11,600  Level Los Angeles Center
12:55PM 34.8569 -116.6322 38° Northeast 134 154 11,600 -60 Level Los Angeles Center
12:56PM 34.8892 -116.6075 32° Northeast 134 154 11,500  Descending Los Angeles Center
12:57PM 34.9275 -116.5764 34° Northeast 136 157 11,600 60 Climbing Los Angeles Center
12:58PM 34.9519 -116.5558 35° Northeast 136 157 11,700  Climbing Los Angeles Center
01:00PM 34.9950 -116.5183 36° Northeast 136 157 11,600 -120 Descending Los Angeles Center
01:01PM 35.0253 -116.4889 39° Northeast 137 158 11,500 -60 Descending Los Angeles Center
01:02PM 35.0569 -116.4614 35° Northeast 139 160 11,500  Level Los Angeles Center
01:03PM 35.0936 -116.4250 39° Northeast 141 162 11,500  Level Los Angeles Center
01:04PM 35.1153 -116.3989 45° Northeast 140 161 11,500 60 Level Los Angeles Center
01:05PM 35.1447 -116.3592 48° Northeast 137 158 11,700 60 Climbing Los Angeles Center
01:06PM 35.1653 -116.3256 53° Northeast 132 152 11,700 -60 Level Los Angeles Center
01:07PM 35.1856 -116.2867 57° Northeast 133 153 11,600 -120 Descending Los Angeles Center
01:08PM 35.2075 -116.2475 56° Northeast 136 157 11,500 -120 Descending Los Angeles Center
01:09PM 35.2286 -116.1975 63° Northeast 139 160 11,400  Descending Los Angeles Center
01:10PM 35.2450 -116.1550 65° Northeast 139 160 11,500  Climbing Los Angeles Center
01:11PM 35.2617 -116.1167 62° Northeast 134 154 11,500  Level Los Angeles Center
01:12PM 35.2800 -116.0792 59° Northeast 131 151 11,600  Climbing Los Angeles Center
01:13PM 35.3022 -116.0447 52° Northeast 128 147 11,600  Level Los Angeles Center
01:14PM 35.3317 -116.0131 41° Northeast 131 151 11,700  Climbing Los Angeles Center
01:15PM 35.3675 -115.9747 41° Northeast 136 157 11,600 -60 Descending Los Angeles Center
01:16PM 35.3972 -115.9436 40° Northeast 139 160 11,600 -60 Level Los Angeles Center
01:17PM 35.4253 -115.9103 44° Northeast 140 161 11,500  Descending Los Angeles Center
01:18PM 35.4522 -115.8761 46° Northeast 141 162 11,600  Climbing Los Angeles Center
01:19PM 35.4797 -115.8447 43° Northeast 139 160 11,600  Level Los Angeles Center
01:20PM 35.5122 -115.8061 44° Northeast 137 158 11,600  Level Los Angeles Center
01:21PM 35.5386 -115.7769 42° Northeast 136 157 11,600  Level Los Angeles Center
01:21PM 35.5442 -115.7753 14° North 133 153 11,600  Level Los Angeles Center
01:22PM 35.5664 -115.7481 45° Northeast 133 153 11,600 -120 Level Los Angeles Center
01:23PM 35.5800 -115.7400 26° Northeast 136 157 11,500  Descending Los Angeles Center
01:23PM 35.5961 -115.7186 47° Northeast 135 155 11,600 60 Climbing Los Angeles Center
01:24PM 35.6031 -115.7169 11° North 137 158 11,600  Level Los Angeles Center
01:24PM 35.6292 -115.6806 49° Northeast 135 155 11,600 -120 Level Los Angeles Center
01:25PM 35.6339 -115.6806 360° North 136 157 11,500 -120 Descending Los Angeles Center
01:26PM 35.6544 -115.6464 53° Northeast 134 154 11,500  Level Los Angeles Center
01:26PM 35.6556 -115.6497 292° West 135 155 11,500  Level Los Angeles Center
01:27PM 35.6772 -115.6097 56° Northeast 134 154 11,500  Level Los Angeles Center
01:27PM 35.6819 -115.6122 337° Northwest 142 163 11,500  Level Los Angeles Center
01:28PM 35.7047 -115.5806 48° Northeast 131 151 11,500  Level Los Angeles Center
01:28PM 35.7108 -115.5764 29° Northeast 133 153 11,500 60 Level Los Angeles Center
01:29PM 35.7375 -115.5494 39° Northeast 131 151 11,600  Climbing Los Angeles Center
01:30PM 35.7639 -115.5222 40° Northeast 130 150 11,600  Level Los Angeles Center
01:30PM 35.7639 -115.5197 90° East 130 150 11,600  Level Los Angeles Center
01:31PM 35.7900 -115.4925 40° Northeast 131 151 11,600  Level Los Angeles Center
01:31PM 35.7933 -115.4883 45° Northeast 130 150 11,600  Level Los Angeles Center
01:32PM 35.8222 -115.4603 38° Northeast 133 153 11,600  Level Los Angeles Center
01:32PM 35.8256 -115.4572 37° Northeast 134 154 11,600  Level Los Angeles Center
01:33PM 35.8547 -115.4292 38° Northeast 137 158 11,600  Level Los Angeles Center
01:33PM 35.8603 -115.4275 14° North 137 158 11,600  Level Los Angeles Center
01:34PM 35.8833 -115.3983 46° Northeast 137 158 11,600  Level Los Angeles Center
01:34PM 35.8850 -115.3928 70° East 141 162 11,600  Level Los Angeles Center
01:35PM 35.9106 -115.3606 46° Northeast 137 158 11,600  Level Los Angeles Center
01:36PM 35.9353 -115.3258 49° Northeast 135 155 11,600  Level Los Angeles Center
01:36PM 35.9389 -115.3222 39° Northeast 134 154 11,600  Level Los Angeles Center
01:37PM 35.9567 -115.2950 51° Northeast 134 154 11,600  Level Los Angeles Center
01:37PM 35.9597 -115.2875 63° Northeast 134 154 11,600 -120 Level Los Angeles Center
01:38PM 35.9792 -115.2586 50° Northeast 133 153 11,500 -120 Descending Los Angeles Center
01:38PM 35.9833 -115.2525 50° Northeast 133 153 11,500  Level Los Angeles Center
01:39PM 36.0058 -115.2231 47° Northeast 133 153 11,500  Level Los Angeles Center
01:39PM 36.0083 -115.2197 47° Northeast 132 152 11,500  Level Los Angeles Center
01:40PM 36.0353 -115.1897 42° Northeast 134 154 11,500  Level Los Angeles Center
01:40PM 36.0372 -115.1847 64° Northeast 134 154 11,500  Level Los Angeles Center
01:41PM 36.0589 -115.1581 45° Northeast 130 150 11,500  Level Los Angeles Center
01:41PM 36.0594 -115.1564 68° East 131 151 11,500  Level Los Angeles Center
01:42PM 36.0875 -115.1219 45° Northeast 136 157 11,500  Level Los Angeles Center
01:42PM 36.0892 -115.1186 58° Northeast 130 150 11,500  Level Los Angeles Center
01:43PM 36.1119 -115.0950 40° Northeast 133 153 11,500  Level Los Angeles Center
01:43PM 36.1178 -115.0878 45° Northeast 130 150 11,500 60 Level Los Angeles Center
01:44PM 36.1400 -115.0644 40° Northeast 129 148 11,600 60 Climbing Los Angeles Center
01:44PM 36.1450 -115.0592 40° Northeast 129 148 11,600  Level Los Angeles Center
01:45PM 36.1694 -115.0308 43° Northeast 129 148 11,600  Level Los Angeles Center
01:45PM 36.1731 -115.0261 47° Northeast 129 148 11,600 60 Level Los Angeles Center
01:46PM 36.2000 -114.9950 43° Northeast 132 152 11,700 60 Climbing Los Angeles Center
01:47PM 36.2186 -114.9797 34° Northeast 134 154 11,700  Level Los Angeles Center
01:47PM 36.2325 -114.9675 35° Northeast 132 152 11,700  Level Los Angeles Center
01:48PM 36.2636 -114.9406 35° Northeast 135 155 11,700  Level Los Angeles Center
01:49PM 36.2942 -114.9147 34° Northeast 133 153 11,700 -60 Level Los Angeles Center
01:50PM 36.3264 -114.8883 33° Northeast 136 157 11,600 -60 Descending Los Angeles Center
01:51PM 36.3578 -114.8617 34° Northeast 137 158 11,600  Level Los Angeles Center
01:52PM 36.3894 -114.8347 34° Northeast 138 159 11,600  Level Los Angeles Center
01:53PM 36.4264 -114.8028 35° Northeast 136 157 11,600  Level Los Angeles Center
01:54PM 36.4572 -114.7778 33° Northeast 134 154 11,600  Level Los Angeles Center
01:56PM 36.4883 -114.7506 35° Northeast 136 157 11,600  Level Los Angeles Center
01:57PM 36.5181 -114.7231 37° Northeast 135 155 11,600  Level Los Angeles Center
01:58PM 36.5497 -114.6911 39° Northeast 135 155 11,600  Level Los Angeles Center
01:59PM 36.5819 -114.6636 34° Northeast 133 153 11,600 -60 Level Los Angeles Center
02:00PM 36.6139 -114.6378 33° Northeast 138 159 11,500 -60 Descending Los Angeles Center
02:01PM 36.6483 -114.6119 31° Northeast 136 157 11,500  Level Los Angeles Center
02:02PM 36.6783 -114.5850 36° Northeast 133 153 11,500  Level Los Angeles Center
02:03PM 36.7103 -114.5581 34° Northeast 129 148 11,500  Level Los Angeles Center
02:04PM 36.7356 -114.5328 39° Northeast 130 150 11,500  Level Los Angeles Center
02:05PM 36.7669 -114.5083 32° Northeast 132 152 11,500 -60 Level Los Angeles Center
02:06PM 36.8044 -114.4794 32° Northeast 132 152 11,400 -120 Descending Los Angeles Center
02:07PM 36.8353 -114.4536 34° Northeast 133 153 11,300 60 Descending Los Angeles Center
02:08PM 36.8656 -114.4306 31° Northeast 129 148 11,600 180 Climbing Los Angeles Center
02:09PM 36.8956 -114.4075 32° Northeast 127 146 11,700  Climbing Los Angeles Center
02:10PM 36.9272 -114.3817 33° Northeast 133 153 11,700  Level Los Angeles Center
02:11PM 36.9597 -114.3592 29° Northeast 133 153 11,700  Level Los Angeles Center
02:12PM 36.9972 -114.3303 32° Northeast 133 153 11,700 -60 Level Los Angeles Center
02:13PM 37.0269 -114.3031 36° Northeast 133 153 11,600 -120 Descending Los Angeles Center
02:15PM 37.0878 -114.2508 34° Northeast 132 152 11,400 -120 Descending Los Angeles Center
02:16PM 37.1203 -114.2258 32° Northeast 135 155 11,300 60 Descending Los Angeles Center
02:17PM 37.1550 -114.1994 31° Northeast 125 144 11,600 180 Climbing Los Angeles Center
02:18PM 37.1844 -114.1783 30° Northeast 122 140 11,700  Climbing Los Angeles Center
02:19PM 37.2128 -114.1503 38° Northeast 127 146 11,700 -60 Level Los Angeles Center
02:20PM 37.2447 -114.1236 34° Northeast 135 155 11,600 -120 Descending Los Angeles Center
02:21PM 37.2772 -114.0992 31° Northeast 135 155 11,500 -60 Descending Los Angeles Center
02:22PM 37.3078 -114.0731 34° Northeast 134 154 11,500  Level Los Angeles Center
02:23PM 37.3406 -114.0447 34° Northeast 133 153 11,500  Level Los Angeles Center
02:25PM 37.3717 -114.0197 33° Northeast 133 153 11,500 -60 Level Los Angeles Center
02:26PM 37.4100 -113.9939 28° Northeast 131 151 11,400 -60 Descending Los Angeles Center
02:27PM 37.4458 -113.9656 32° Northeast 129 148 11,400  Level Los Angeles Center
02:28PM 37.4756 -113.9400 34° Northeast 129 148 11,500 60 Climbing Los Angeles Center
02:29PM 37.5058 -113.9153 33° Northeast 129 148 11,600  Climbing Los Angeles Center
02:30PM 37.5375 -113.8917 31° Northeast 130 150 11,600 60 Level Los Angeles Center
02:31PM 37.5714 -113.8697 27° Northeast 132 152 11,800 60 Climbing Los Angeles Center
02:31PM 37.5850 -113.8597 30° Northeast 134 154 11,700 -240 Descending Los Angeles Center
02:32PM 37.6231 -113.8250 36° Northeast 138 159 11,500 -120 Descending Los Angeles Center
02:33PM 37.6431 -113.8078 34° Northeast 140 161 11,500  Level Salt Lake Center
02:34PM 37.6736 -113.7786 37° Northeast 141 162 11,500  Level Salt Lake Center
02:35PM 37.7036 -113.7508 36° Northeast 138 159 11,500  Level Salt Lake Center
02:36PM 37.7344 -113.7244 34° Northeast 136 157 11,500  Level Salt Lake Center
02:37PM 37.7744 -113.6986 27° Northeast 134 154 11,500 -60 Level Salt Lake Center
02:38PM 37.8078 -113.6764 28° Northeast 134 154 11,400 -60 Descending Salt Lake Center
02:39PM 37.8269 -113.6619 31° Northeast 134 154 11,400 60 Level Salt Lake Center
02:40PM 37.8575 -113.6353 35° Northeast 134 154 11,500 60 Climbing Salt Lake Center
02:41PM 37.8875 -113.6094 34° Northeast 133 153 11,600  Climbing Salt Lake Center
02:42PM 37.9189 -113.5844 32° Northeast 132 152 11,600  Level Salt Lake Center
02:43PM 37.9522 -113.5597 30° Northeast 134 154 11,600  Level Salt Lake Center
02:44PM 37.9883 -113.5233 38° Northeast 137 158 11,600  Level Salt Lake Center
02:45PM 38.0192 -113.4964 35° Northeast 136 157 11,600  Level Salt Lake Center
02:46PM 38.0514 -113.4711 32° Northeast 136 157 11,600  Level Salt Lake Center
02:47PM 38.0833 -113.4467 31° Northeast 135 155 11,700  Climbing Salt Lake Center
02:48PM 38.1161 -113.4236 29° Northeast 135 155 11,700  Level Salt Lake Center
02:49PM 38.1486 -113.3994 30° Northeast 135 155 11,700 -60 Level Salt Lake Center
02:50PM 38.1792 -113.3703 37° Northeast 135 155 11,600 -60 Descending Salt Lake Center
02:51PM 38.2150 -113.3339 39° Northeast 136 157 11,600  Level Salt Lake Center
02:52PM 38.2461 -113.3064 35° Northeast 136 157 11,700  Climbing Salt Lake Center
02:53PM 38.2778 -113.2814 32° Northeast 136 157 11,700 -60 Level Salt Lake Center
02:54PM 38.3106 -113.2536 34° Northeast 138 159 11,600 -120 Descending Salt Lake Center
02:55PM 38.3411 -113.2236 38° Northeast 138 159 11,500 -60 Descending Salt Lake Center
02:56PM 38.3708 -113.1922 40° Northeast 139 160 11,500  Level Salt Lake Center
02:57PM 38.3997 -113.1606 41° Northeast 137 158 11,500  Level Salt Lake Center
02:58PM 38.4317 -113.1206 44° Northeast 136 157 11,500  Level Salt Lake Center
02:59PM 38.4647 -113.0950 31° Northeast 137 158 11,500  Level Salt Lake Center
03:00PM 38.5017 -113.0808 17° North 138 159 11,500  Level Salt Lake Center
03:02PM 38.5378 -113.0667 17° North 138 159 11,600  Climbing Salt Lake Center
03:03PM 38.5700 -113.0419 31° Northeast 135 155 11,600  Level Salt Lake Center
03:04PM 38.5989 -113.0094 41° Northeast 134 154 11,600  Level Salt Lake Center
03:05PM 38.6372 -112.9744 35° Northeast 138 159 11,700  Climbing Salt Lake Center
03:06PM 38.6686 -112.9461 35° Northeast 139 160 11,600 -60 Descending Salt Lake Center
03:07PM 38.7011 -112.9175 34° Northeast 140 161 11,600 -60 Level Salt Lake Center
03:08PM 38.7333 -112.8889 35° Northeast 141 162 11,500 -120 Descending Salt Lake Center
03:09PM 38.7667 -112.8622 32° Northeast 141 162 11,400  Descending Salt Lake Center
03:10PM 38.8003 -112.8367 31° Northeast 142 163 11,500  Climbing Salt Lake Center
03:11PM 38.8342 -112.8125 29° Northeast 141 162 11,500  Level Salt Lake Center
03:12PM 38.8719 -112.7803 34° Northeast 138 159 11,600 60 Climbing Salt Lake Center
03:13PM 38.9036 -112.7517 35° Northeast 138 159 11,700 60 Climbing Salt Lake Center
03:14PM 38.9353 -112.7236 35° Northeast 138 159 11,800  Climbing Salt Lake Center
03:15PM 38.9669 -112.6942 36° Northeast 139 160 11,700 -180 Descending Salt Lake Center
03:16PM 39.0011 -112.6647 34° Northeast 142 163 11,500 -120 Descending Salt Lake Center
03:17PM 39.0356 -112.6372 32° Northeast 146 168 11,500 -60 Level Salt Lake Center
03:18PM 39.0756 -112.6064 31° Northeast 143 165 11,400 -60 Descending Salt Lake Center
03:19PM 39.1092 -112.5811 30° Northeast 142 163 11,400  Level Salt Lake Center
03:20PM 39.1419 -112.5567 30° Northeast 140 161 11,500  Climbing Salt Lake Center
03:21PM 39.1736 -112.5306 33° Northeast 137 158 11,500  Level Salt Lake Center
03:22PM 39.2050 -112.5031 34° Northeast 136 157 11,600  Climbing Salt Lake Center
03:23PM 39.2372 -112.4753 34° Northeast 138 159 11,600 -60 Level Salt Lake Center
03:25PM 39.2881 -112.4593 24° Northeast  Level Estimated
03:26PM 39.3464 -112.3858 20° North 157 181 11,500  Level Salt Lake Center
03:28PM 39.3783 -112.3525 39° Northeast 147 169 11,500 -1,020 Level Salt Lake Center
03:29PM 39.4164 -112.3239 30° Northeast 148 170 9,500  Descending Salt Lake Center
03:30PM 39.4467 -112.2953 36° Northeast 145 167 11,500 840 Climbing Salt Lake Center
03:31PM 39.4886 -112.2603 33° Northeast 120 138 11,500 -60 Level Salt Lake Center
03:32PM 39.5469 -112.3385 20° North  Level FlightAware Approximate
03:32PM 39.5228 -112.2358 29° Northeast 138 159 11,400  Level Salt Lake Center
03:33PM 39.5547 -112.2075 34° Northeast 139 160 11,400  Level Salt Lake Center
03:34PM 39.5856 -112.1783 36° Northeast 138 159 11,500 120 Climbing Salt Lake Center
03:35PM 39.6147 -112.1514 35° Northeast 134 154 11,700  Climbing Salt Lake Center
03:36PM 39.6433 -112.1214 39° Northeast 132 152 11,600  Descending Salt Lake Center
03:37PM 39.6764 -112.0808 43° Northeast 133 153 11,700  Climbing Salt Lake Center
03:38PM 39.7044 -112.0478 42° Northeast 135 155 11,600 -60 Descending Salt Lake Center
03:39PM 39.7344 -112.0167 39° Northeast 137 158 11,600  Level Salt Lake Center
03:40PM 39.7647 -111.9850 39° Northeast 140 161 11,600  Level Salt Lake Center
03:41PM 39.7944 -111.9553 38° Northeast 137 158 11,600 -60 Level Salt Lake Center
03:42PM 39.8242 -111.9261 37° Northeast 136 157 11,500 -300 Descending Salt Lake Center
03:43PM 39.8561 -111.8939 38° Northeast 144 166 11,000 -540 Descending Salt Lake Center
03:44PM 39.8933 -111.8572 37° Northeast 140 161 10,500 -540 Descending Salt Lake Center
03:45PM 39.9072 -111.8533 12° North 140 161 10,200 -420 Descending Salt Lake Center
03:45PM 39.9256 -111.8281 47° Northeast 143 165 10,100 -120 Descending Salt Lake Center
03:46PM 39.9344 -111.8275 North 141 162 10,100 -120 Level Salt Lake Center
03:46PM 39.9544 -111.7981 48° Northeast 134 154 10,000 -300 Descending Salt Lake Center
03:47PM 39.9628 -111.7981 360° North 136 157 9,800 -420 Descending Salt Lake Center
03:47PM 39.9853 -111.7650 48° Northeast 142 163 9,600 -240 Descending Salt Lake Center
03:48PM 39.9944 -111.7622 13° North 141 162 9,600 -240 Level Salt Lake Center
03:48PM 40.0167 -111.7267 51° Northeast 142 163 9,400 -60 Descending Salt Lake Center
03:49PM 40.0478 -111.6964 37° Northeast 138 159 9,500 120 Climbing Salt Lake Center
03:50PM 40.0547 -111.6969 356° North 135 155 9,600 60 Climbing Salt Lake Center
03:50PM 40.0769 -111.6711 42° Northeast 127 146 9,600  Level Salt Lake Center
03:51PM 40.0864 -111.6722 355° North 129 148 9,600 -120 Level Salt Lake Center
03:51PM 40.1172 -111.6531 25° Northeast 138 159 9,500 -120 Descending Salt Lake Center
03:52PM 40.1225 -111.6597 316° Northwest 135 155 9,500 60 Level Salt Lake Center
03:52PM 40.1531 -111.6433 22° Northeast 130 150 9,600 60 Climbing Salt Lake Center
03:53PM 40.1594 -111.6500 321° Northwest 130 150 9,600  Level Salt Lake Center
03:53PM 40.1900 -111.6394 15° North 130 150 9,600  Level Salt Lake Center
03:54PM 40.1958 -111.6486 310° West 131 151 9,600 60 Level Salt Lake Center
03:54PM 40.2264 -111.6344 19° North 129 148 9,700  Climbing Salt Lake Center
03:56PM 40.2625 -111.6350 359° North 129 148 9,700  Level Salt Lake Center
03:57PM 40.2989 -111.6300 North 129 148 9,800 -120 Climbing Salt Lake Center
03:58PM 40.3306 -111.6039 32° Northeast 132 152 9,500 -540 Descending Salt Lake Center
03:59PM 40.3617 -111.5686 41° Northeast 135 155 8,800 -600 Descending Salt Lake Center
04:00PM 40.3925 -111.5400 35° Northeast 135 155 8,300 -300 Descending Salt Lake Center
04:01PM 40.4181 -111.5150 37° Northeast 135 155 8,300  Level Salt Lake Center